sensor_id;sensor_type;location;lat;lon;timestamp;pressure;altitude;pressure_sealevel;temperature;humidity
59859;BME280;45734;53.648;9.566;2022-11-14T00:02:36;102143.47;;;7.57;100.00
59859;BME280;45734;53.648;9.566;2022-11-14T00:07:37;102138.38;;;7.54;100.00
59859;BME280;45734;53.648;9.566;2022-11-14T00:12:37;102135.06;;;7.50;100.00
59859;BME280;45734;53.648;9.566;2022-11-14T00:17:37;102127.34;;;7.47;100.00
59859;BME280;45734;53.648;9.566;2022-11-14T00:22:38;102123.97;;;7.45;100.00
59859;BME280;45734;53.648;9.566;2022-11-14T00:27:38;102119.81;;;7.41;100.00
59859;BME280;45734;53.648;9.566;2022-11-14T00:32:39;102114.63;;;7.39;100.00
59859;BME280;45734;53.648;9.566;2022-11-14T00:37:39;102099.03;;;7.35;100.00
59859;BME280;45734;53.648;9.566;2022-11-14T00:42:39;102092.34;;;7.29;100.00
59859;BME280;45734;53.648;9.566;2022-11-14T00:47:39;102086.31;;;7.27;100.00
59859;BME280;45734;53.648;9.566;2022-11-14T00:52:40;102084.84;;;7.23;100.00
59859;BME280;45734;53.648;9.566;2022-11-14T00:57:40;102080.19;;;7.14;100.00
59859;BME280;45734;53.648;9.566;2022-11-14T01:02:40;102083.13;;;7.09;100.00
59859;BME280;45734;53.648;9.566;2022-11-14T01:07:40;102074.56;;;7.06;100.00
59859;BME280;45734;53.648;9.566;2022-11-14T01:12:41;102071.50;;;6.99;100.00
59859;BME280;45734;53.648;9.566;2022-11-14T01:17:41;102065.78;;;6.92;100.00
59859;BME280;45734;53.648;9.566;2022-11-14T01:22:41;102058.75;;;6.91;100.00
59859;BME280;45734;53.648;9.566;2022-11-14T01:27:41;102054.53;;;6.89;100.00
59859;BME280;45734;53.648;9.566;2022-11-14T01:32:42;102054.72;;;6.86;100.00
59859;BME280;45734;53.648;9.566;2022-11-14T01:37:42;102045.31;;;6.82;100.00
59859;BME280;45734;53.648;9.566;2022-11-14T01:48:54;102031.00;;;6.71;100.00
59859;BME280;45734;53.648;9.566;2022-11-14T01:53:58;102016.16;;;6.69;100.00
59859;BME280;45734;53.648;9.566;2022-11-14T01:59:08;102019.88;;;6.66;100.00
59859;BME280;45734;53.648;9.566;2022-11-14T02:04:09;102004.00;;;6.66;100.00
59859;BME280;45734;53.648;9.566;2022-11-14T02:09:10;101985.66;;;6.63;100.00
59859;BME280;45734;53.648;9.566;2022-11-14T02:14:11;101985.00;;;6.60;100.00
59859;BME280;45734;53.648;9.566;2022-11-14T02:19:13;101980.34;;;6.63;100.00
59859;BME280;45734;53.648;9.566;2022-11-14T02:24:14;101975.19;;;6.62;100.00
59859;BME280;45734;53.648;9.566;2022-11-14T02:29:14;101964.59;;;6.62;100.00
59859;BME280;45734;53.648;9.566;2022-11-14T02:34:14;101963.00;;;6.59;100.00
59859;BME280;45734;53.648;9.566;2022-11-14T02:39:18;101954.31;;;6.57;100.00
59859;BME280;45734;53.648;9.566;2022-11-14T02:44:19;101940.22;;;6.56;100.00
59859;BME280;45734;53.648;9.566;2022-11-14T02:49:19;101945.53;;;6.56;100.00
59859;BME280;45734;53.648;9.566;2022-11-14T02:54:19;101937.56;;;6.56;100.00
59859;BME280;45734;53.648;9.566;2022-11-14T02:59:20;101933.13;;;6.57;100.00
59859;BME280;45734;53.648;9.566;2022-11-14T03:04:20;101932.28;;;6.56;100.00
59859;BME280;45734;53.648;9.566;2022-11-14T03:09:20;101922.66;;;6.55;100.00
59859;BME280;45734;53.648;9.566;2022-11-14T03:14:21;101933.34;;;6.54;100.00
59859;BME280;45734;53.648;9.566;2022-11-14T03:19:21;101906.88;;;6.54;100.00
59859;BME280;45734;53.648;9.566;2022-11-14T03:24:21;101917.56;;;6.52;100.00
59859;BME280;45734;53.648;9.566;2022-11-14T03:29:22;101905.28;;;6.51;100.00
59859;BME280;45734;53.648;9.566;2022-11-14T03:34:22;101900.84;;;6.52;100.00
59859;BME280;45734;53.648;9.566;2022-11-14T03:39:22;101890.28;;;6.52;100.00
59859;BME280;45734;53.648;9.566;2022-11-14T03:44:23;101881.44;;;6.51;100.00
59859;BME280;45734;53.648;9.566;2022-11-14T03:49:23;101876.28;;;6.50;100.00
59859;BME280;45734;53.648;9.566;2022-11-14T03:54:23;101862.09;;;6.51;100.00
59859;BME280;45734;53.648;9.566;2022-11-14T03:59:23;101864.72;;;6.51;100.00
59859;BME280;45734;53.648;9.566;2022-11-14T04:04:24;101862.09;;;6.51;100.00
59859;BME280;45734;53.648;9.566;2022-11-14T04:09:24;101860.28;;;6.51;100.00
59859;BME280;45734;53.648;9.566;2022-11-14T04:14:24;101861.16;;;6.52;100.00
59859;BME280;45734;53.648;9.566;2022-11-14T04:19:25;101857.63;;;6.51;100.00
59859;BME280;45734;53.648;9.566;2022-11-14T04:24:25;101838.38;;;6.49;100.00
59859;BME280;45734;53.648;9.566;2022-11-14T04:29:25;101840.91;;;6.51;100.00
59859;BME280;45734;53.648;9.566;2022-11-14T04:34:25;101841.88;;;6.50;100.00
59859;BME280;45734;53.648;9.566;2022-11-14T04:39:26;101832.97;;;6.51;100.00
59859;BME280;45734;53.648;9.566;2022-11-14T04:44:26;101826.00;;;6.50;100.00
59859;BME280;45734;53.648;9.566;2022-11-14T04:49:26;101815.28;;;6.51;100.00
59859;BME280;45734;53.648;9.566;2022-11-14T04:54:27;101807.34;;;6.51;100.00
59859;BME280;45734;53.648;9.566;2022-11-14T04:59:27;101803.13;;;6.49;100.00
59859;BME280;45734;53.648;9.566;2022-11-14T05:04:27;101796.97;;;6.48;100.00
59859;BME280;45734;53.648;9.566;2022-11-14T05:09:27;101799.97;;;6.44;100.00
59859;BME280;45734;53.648;9.566;2022-11-14T05:14:28;101794.53;;;6.45;100.00
59859;BME280;45734;53.648;9.566;2022-11-14T05:19:28;101794.44;;;6.47;100.00
59859;BME280;45734;53.648;9.566;2022-11-14T05:24:29;101791.81;;;6.47;100.00
59859;BME280;45734;53.648;9.566;2022-11-14T05:29:29;101798.06;;;6.46;100.00
59859;BME280;45734;53.648;9.566;2022-11-14T05:34:29;101796.25;;;6.46;100.00
59859;BME280;45734;53.648;9.566;2022-11-14T05:39:30;101794.53;;;6.45;100.00
59859;BME280;45734;53.648;9.566;2022-11-14T05:44:30;101791.91;;;6.45;100.00
59859;BME280;45734;53.648;9.566;2022-11-14T05:49:30;101788.41;;;6.45;100.00
59859;BME280;45734;53.648;9.566;2022-11-14T05:54:31;101778.78;;;6.44;100.00
59859;BME280;45734;53.648;9.566;2022-11-14T05:59:31;101783.47;;;6.40;100.00
59859;BME280;45734;53.648;9.566;2022-11-14T06:04:31;101780.16;;;6.37;100.00
59859;BME280;45734;53.648;9.566;2022-11-14T06:09:32;101775.00;;;6.35;100.00
59859;BME280;45734;53.648;9.566;2022-11-14T06:14:32;101774.16;;;6.34;100.00
59859;BME280;45734;53.648;9.566;2022-11-14T06:19:33;101780.38;;;6.33;100.00
59859;BME280;45734;53.648;9.566;2022-11-14T06:24:33;101770.75;;;6.32;100.00
59859;BME280;45734;53.648;9.566;2022-11-14T06:29:33;101776.91;;;6.33;100.00
59859;BME280;45734;53.648;9.566;2022-11-14T06:34:33;101775.31;;;6.30;100.00
59859;BME280;45734;53.648;9.566;2022-11-14T06:39:34;101779.66;;;6.31;100.00
59859;BME280;45734;53.648;9.566;2022-11-14T06:44:34;101778.56;;;6.34;100.00
59859;BME280;45734;53.648;9.566;2022-11-14T06:49:34;101770.63;;;6.34;100.00
59859;BME280;45734;53.648;9.566;2022-11-14T06:54:34;101775.94;;;6.34;100.00
59859;BME280;45734;53.648;9.566;2022-11-14T06:59:35;101783.78;;;6.35;100.00
59859;BME280;45734;53.648;9.566;2022-11-14T07:04:35;101789.81;;;6.38;100.00
59859;BME280;45734;53.648;9.566;2022-11-14T07:09:35;101784.31;;;6.41;100.00
59859;BME280;45734;53.648;9.566;2022-11-14T07:14:36;101793.91;;;6.42;100.00
59859;BME280;45734;53.648;9.566;2022-11-14T07:19:36;101785.75;;;6.45;100.00
59859;BME280;45734;53.648;9.566;2022-11-14T07:24:36;101785.75;;;6.45;100.00
59859;BME280;45734;53.648;9.566;2022-11-14T07:29:37;101785.75;;;6.45;100.00
59859;BME280;45734;53.648;9.566;2022-11-14T07:34:37;101791.91;;;6.45;100.00
59859;BME280;45734;53.648;9.566;2022-11-14T07:39:37;101774.66;;;6.40;100.00
59859;BME280;45734;53.648;9.566;2022-11-14T07:44:37;101792.03;;;6.44;100.00
59859;BME280;45734;53.648;9.566;2022-11-14T07:49:38;101782.28;;;6.44;100.00
59859;BME280;45734;53.648;9.566;2022-11-14T07:54:38;101772.66;;;6.43;100.00
59859;BME280;45734;53.648;9.566;2022-11-14T07:59:38;101775.41;;;6.42;100.00
59859;BME280;45734;53.648;9.566;2022-11-14T08:04:40;101780.69;;;6.42;100.00
59859;BME280;45734;53.648;9.566;2022-11-14T08:09:40;101776.88;;;6.46;100.00
59859;BME280;45734;53.648;9.566;2022-11-14T08:14:40;101767.25;;;6.45;100.00
59859;BME280;45734;53.648;9.566;2022-11-14T08:19:41;101774.03;;;6.49;100.00
59859;BME280;45734;53.648;9.566;2022-11-14T08:24:41;101753.91;;;6.46;100.00
59859;BME280;45734;53.648;9.566;2022-11-14T08:29:41;101769.03;;;6.44;100.00
59859;BME280;45734;53.648;9.566;2022-11-14T08:34:41;101763.34;;;6.38;100.00
59859;BME280;45734;53.648;9.566;2022-11-14T08:39:42;101748.19;;;6.40;100.00
59859;BME280;45734;53.648;9.566;2022-11-14T08:44:42;101760.69;;;6.38;100.00
59859;BME280;45734;53.648;9.566;2022-11-14T08:49:42;101760.56;;;6.39;100.00
59859;BME280;45734;53.648;9.566;2022-11-14T08:54:43;101750.97;;;6.38;100.00
59859;BME280;45734;53.648;9.566;2022-11-14T08:59:43;101748.19;;;6.40;100.00
59859;BME280;45734;53.648;9.566;2022-11-14T09:04:43;101746.19;;;6.43;100.00
59859;BME280;45734;53.648;9.566;2022-11-14T09:09:44;101747.88;;;6.44;100.00
59859;BME280;45734;53.648;9.566;2022-11-14T09:14:44;101747.56;;;6.49;100.00
59859;BME280;45734;53.648;9.566;2022-11-14T09:19:44;101726.59;;;6.46;100.00
59859;BME280;45734;53.648;9.566;2022-11-14T09:24:44;101730.19;;;6.45;100.00
59859;BME280;45734;53.648;9.566;2022-11-14T09:29:48;101731.16;;;6.44;100.00
59859;BME280;45734;53.648;9.566;2022-11-14T09:34:48;101739.84;;;6.46;100.00
59859;BME280;45734;53.648;9.566;2022-11-14T09:39:49;101746.81;;;6.47;100.00
59859;BME280;45734;53.648;9.566;2022-11-14T09:44:59;101737.81;;;6.49;100.00
59859;BME280;45734;53.648;9.566;2022-11-14T09:50:09;101738.66;;;6.50;100.00
59859;BME280;45734;53.648;9.566;2022-11-14T09:55:17;101733.88;;;6.55;100.00
59859;BME280;45734;53.648;9.566;2022-11-14T10:00:21;101717.78;;;6.58;100.00
59859;BME280;45734;53.648;9.566;2022-11-14T10:15:41;101715.19;;;6.69;100.00
59859;BME280;45734;53.648;9.566;2022-11-14T10:26:24;101708.25;;;6.79;100.00
59859;BME280;45734;53.648;9.566;2022-11-14T10:31:40;101686.84;;;6.83;100.00
59859;BME280;45734;53.648;9.566;2022-11-14T10:36:56;101685.66;;;6.87;100.00
59859;BME280;45734;53.648;9.566;2022-11-14T10:42:09;101672.19;;;6.90;100.00
59859;BME280;45734;53.648;9.566;2022-11-14T10:47:13;101674.38;;;6.96;100.00
59859;BME280;45734;53.648;9.566;2022-11-14T10:52:17;101663.31;;;7.02;100.00
59859;BME280;45734;53.648;9.566;2022-11-14T10:57:20;101666.47;;;7.07;100.00
59859;BME280;45734;53.648;9.566;2022-11-14T11:02:21;101650.09;;;7.13;100.00
59859;BME280;45734;53.648;9.566;2022-11-14T11:07:22;101645.19;;;7.20;100.00
59859;BME280;45734;53.648;9.566;2022-11-14T11:12:58;101643.53;;;7.30;100.00
59859;BME280;45734;53.648;9.566;2022-11-14T11:18:03;101637.34;;;7.30;100.00
59859;BME280;45734;53.648;9.566;2022-11-14T11:28:18;101605.72;;;7.51;100.00
59859;BME280;45734;53.648;9.566;2022-11-14T11:38:19;101586.91;;;7.54;100.00
59859;BME280;45734;53.648;9.566;2022-11-14T11:48:38;101560.66;;;7.51;100.00
59859;BME280;45734;53.648;9.566;2022-11-14T11:53:40;101538.94;;;7.45;100.00
59859;BME280;45734;53.648;9.566;2022-11-14T11:58:47;101520.50;;;7.33;100.00
59859;BME280;45734;53.648;9.566;2022-11-14T12:03:50;101533.31;;;7.39;100.00
59859;BME280;45734;53.648;9.566;2022-11-14T12:24:23;101577.81;;;8.01;100.00
59859;BME280;45734;53.648;9.566;2022-11-14T12:34:47;101569.13;;;7.88;100.00
59859;BME280;45734;53.648;9.566;2022-11-14T12:40:20;101548.66;;;7.90;100.00
59859;BME280;45734;53.648;9.566;2022-11-14T12:50:42;101539.72;;;7.91;100.00
59859;BME280;45734;53.648;9.566;2022-11-14T13:10:52;101522.31;;;8.09;100.00
59859;BME280;45734;53.648;9.566;2022-11-14T13:15:54;101530.03;;;8.12;100.00
59859;BME280;45734;53.648;9.566;2022-11-14T13:21:21;101540.63;;;8.12;100.00
59859;BME280;45734;53.648;9.566;2022-11-14T13:26:42;101533.50;;;8.13;100.00
59859;BME280;45734;53.648;9.566;2022-11-14T13:31:46;101523.63;;;8.15;100.00
59859;BME280;45734;53.648;9.566;2022-11-14T13:37:10;101525.88;;;8.20;100.00
59859;BME280;45734;53.648;9.566;2022-11-14T13:42:29;101506.22;;;8.22;100.00
59859;BME280;45734;53.648;9.566;2022-11-14T13:52:45;101500.78;;;8.24;100.00
59859;BME280;45734;53.648;9.566;2022-11-14T14:03:18;101503.69;;;8.21;100.00
59859;BME280;45734;53.648;9.566;2022-11-14T14:08:45;101509.25;;;8.18;100.00
59859;BME280;45734;53.648;9.566;2022-11-14T14:25:03;101471.69;;;8.01;100.00
59859;BME280;45734;53.648;9.566;2022-11-14T14:30:11;101470.38;;;7.96;100.00
59859;BME280;45734;53.648;9.566;2022-11-14T14:35:30;101460.53;;;7.86;100.00
59859;BME280;45734;53.648;9.566;2022-11-14T14:40:33;101453.44;;;7.76;100.00
59859;BME280;45734;53.648;9.566;2022-11-14T14:45:46;101459.59;;;7.65;100.00
59859;BME280;45734;53.648;9.566;2022-11-14T14:50:55;101452.66;;;7.53;100.00
59859;BME280;45734;53.648;9.566;2022-11-14T14:55:57;101443.06;;;7.40;100.00
59859;BME280;45734;53.648;9.566;2022-11-14T15:01:04;101449.34;;;7.28;100.00
59859;BME280;45734;53.648;9.566;2022-11-14T15:11:29;101425.41;;;7.07;100.00
59859;BME280;45734;53.648;9.566;2022-11-14T15:16:30;101432.38;;;6.97;100.00
59859;BME280;45734;53.648;9.566;2022-11-14T15:21:30;101433.22;;;6.86;100.00
59859;BME280;45734;53.648;9.566;2022-11-14T15:26:30;101421.78;;;6.74;100.00
59859;BME280;45734;53.648;9.566;2022-11-14T15:31:33;101427.94;;;6.64;100.00
59859;BME280;45734;53.648;9.566;2022-11-14T15:36:34;101429.59;;;6.53;100.00
59859;BME280;45734;53.648;9.566;2022-11-14T15:41:34;101434.50;;;6.47;100.00
59859;BME280;45734;53.648;9.566;2022-11-14T15:46:39;101428.13;;;6.38;100.00
59859;BME280;45734;53.648;9.566;2022-11-14T15:51:51;101420.88;;;6.29;100.00
59859;BME280;45734;53.648;9.566;2022-11-14T15:56:56;101421.69;;;6.18;100.00
59859;BME280;45734;53.648;9.566;2022-11-14T16:02:01;101418.91;;;6.08;100.00
59859;BME280;45734;53.648;9.566;2022-11-14T16:07:03;101414.94;;;6.03;100.00
59859;BME280;45734;53.648;9.566;2022-11-14T16:12:04;101409.38;;;5.95;100.00
59859;BME280;45734;53.648;9.566;2022-11-14T16:17:05;101413.03;;;5.92;100.00
59859;BME280;45734;53.648;9.566;2022-11-14T16:22:15;101407.69;;;5.94;100.00
59859;BME280;45734;53.648;9.566;2022-11-14T16:27:15;101404.91;;;5.95;100.00
59859;BME280;45734;53.648;9.566;2022-11-14T16:32:16;101402.47;;;5.92;100.00
59859;BME280;45734;53.648;9.566;2022-11-14T16:37:16;101398.25;;;5.89;100.00
59859;BME280;45734;53.648;9.566;2022-11-14T16:42:16;101389.56;;;5.87;100.00
59859;BME280;45734;53.648;9.566;2022-11-14T16:47:17;101393.31;;;5.85;100.00
59859;BME280;45734;53.648;9.566;2022-11-14T16:52:18;101388.97;;;5.84;100.00
59859;BME280;45734;53.648;9.566;2022-11-14T16:57:19;101382.09;;;5.81;100.00
59859;BME280;45734;53.648;9.566;2022-11-14T17:02:19;101386.78;;;5.78;100.00
59859;BME280;45734;53.648;9.566;2022-11-14T17:07:20;101380.16;;;5.72;100.00
59859;BME280;45734;53.648;9.566;2022-11-14T17:12:20;101376.78;;;5.70;100.00
59859;BME280;45734;53.648;9.566;2022-11-14T17:17:20;101371.00;;;5.65;100.00
59859;BME280;45734;53.648;9.566;2022-11-14T17:22:21;101368.69;;;5.60;100.00
59859;BME280;45734;53.648;9.566;2022-11-14T17:27:21;101365.44;;;5.57;100.00
59859;BME280;45734;53.648;9.566;2022-11-14T17:32:21;101356.91;;;5.53;100.00
59859;BME280;45734;53.648;9.566;2022-11-14T17:37:22;101350.19;;;5.60;100.00
59859;BME280;45734;53.648;9.566;2022-11-14T17:42:22;101360.06;;;5.70;100.00
59859;BME280;45734;53.648;9.566;2022-11-14T17:47:22;101353.50;;;5.75;100.00
59859;BME280;45734;53.648;9.566;2022-11-14T17:52:22;101332.94;;;5.79;100.00
59859;BME280;45734;53.648;9.566;2022-11-14T17:57:23;101334.75;;;5.78;100.00
59859;BME280;45734;53.648;9.566;2022-11-14T18:02:23;101330.94;;;5.82;100.00
59859;BME280;45734;53.648;9.566;2022-11-14T18:07:23;101325.78;;;5.92;100.00
59859;BME280;45734;53.648;9.566;2022-11-14T18:12:24;101327.03;;;6.10;100.00
59859;BME280;45734;53.648;9.566;2022-11-14T18:17:24;101316.38;;;6.34;100.00
59859;BME280;45734;53.648;9.566;2022-11-14T18:22:26;101314.94;;;6.53;100.00
59859;BME280;45734;53.648;9.566;2022-11-14T18:27:26;101302.28;;;6.56;100.00
59859;BME280;45734;53.648;9.566;2022-11-14T18:32:27;101317.59;;;6.64;100.00
59859;BME280;45734;53.648;9.566;2022-11-14T18:37:27;101316.25;;;6.70;100.00
59859;BME280;45734;53.648;9.566;2022-11-14T18:42:29;101328.88;;;6.77;100.00
59859;BME280;45734;53.648;9.566;2022-11-14T18:47:29;101320.66;;;6.80;100.00
59859;BME280;45734;53.648;9.566;2022-11-14T18:52:30;101312.97;;;6.89;100.00
59859;BME280;45734;53.648;9.566;2022-11-14T18:57:30;101312.59;;;6.93;100.00
59859;BME280;45734;53.648;9.566;2022-11-14T19:02:30;101299.22;;;6.95;100.00
59859;BME280;45734;53.648;9.566;2022-11-14T19:07:31;101305.75;;;6.91;100.00
59859;BME280;45734;53.648;9.566;2022-11-14T19:12:31;101300.34;;;6.81;100.00
59859;BME280;45734;53.648;9.566;2022-11-14T19:17:31;101303.59;;;6.73;100.00
59859;BME280;45734;53.648;9.566;2022-11-14T19:22:31;101292.69;;;6.67;100.00
59859;BME280;45734;53.648;9.566;2022-11-14T19:27:32;101292.44;;;6.58;100.00
59859;BME280;45734;53.648;9.566;2022-11-14T19:32:32;101295.19;;;6.57;100.00
59859;BME280;45734;53.648;9.566;2022-11-14T19:37:33;101295.44;;;6.54;100.00
59859;BME280;45734;53.648;9.566;2022-11-14T19:42:33;101286.31;;;6.47;100.00
59859;BME280;45734;53.648;9.566;2022-11-14T19:47:34;101278.13;;;6.39;100.00
59859;BME280;45734;53.648;9.566;2022-11-14T19:52:34;101265.75;;;6.28;100.00
59859;BME280;45734;53.648;9.566;2022-11-14T19:57:34;101270.81;;;6.20;100.00
59859;BME280;45734;53.648;9.566;2022-11-14T20:02:34;101260.34;;;6.18;100.00
59859;BME280;45734;53.648;9.566;2022-11-14T20:07:39;101262.50;;;6.13;100.00
59859;BME280;45734;53.648;9.566;2022-11-14T20:12:39;101252.28;;;6.08;100.00
59859;BME280;45734;53.648;9.566;2022-11-14T20:17:40;101246.50;;;6.03;100.00
59859;BME280;45734;53.648;9.566;2022-11-14T20:22:40;101253.72;;;6.01;100.00
59859;BME280;45734;53.648;9.566;2022-11-14T20:27:40;101229.75;;;5.92;100.00
59859;BME280;45734;53.648;9.566;2022-11-14T20:32:41;101218.94;;;5.83;100.00
59859;BME280;45734;53.648;9.566;2022-11-14T20:37:41;101228.06;;;5.79;100.00
59859;BME280;45734;53.648;9.566;2022-11-14T20:42:46;101218.44;;;5.78;100.00
59859;BME280;45734;53.648;9.566;2022-11-14T20:47:47;101202.81;;;5.75;100.00
59859;BME280;45734;53.648;9.566;2022-11-14T20:52:47;101194.28;;;5.72;100.00
59859;BME280;45734;53.648;9.566;2022-11-14T20:57:47;101192.25;;;5.75;100.00
59859;BME280;45734;53.648;9.566;2022-11-14T21:02:48;101197.78;;;5.72;100.00
59859;BME280;45734;53.648;9.566;2022-11-14T21:07:49;101188.91;;;5.73;100.00
59859;BME280;45734;53.648;9.566;2022-11-14T21:12:49;101169.78;;;5.70;100.00
59859;BME280;45734;53.648;9.566;2022-11-14T21:18:09;101175.69;;;5.73;100.00
59859;BME280;45734;53.648;9.566;2022-11-14T21:23:09;101174.97;;;5.71;100.00
59859;BME280;45734;53.648;9.566;2022-11-14T21:28:10;101154.28;;;5.65;100.00
59859;BME280;45734;53.648;9.566;2022-11-14T21:33:10;101160.50;;;5.64;100.00
59859;BME280;45734;53.648;9.566;2022-11-14T21:38:10;101147.91;;;5.56;100.00
59859;BME280;45734;53.648;9.566;2022-11-14T21:43:13;101161.72;;;5.49;100.00
59859;BME280;45734;53.648;9.566;2022-11-14T21:48:13;101157.13;;;5.39;100.00
59859;BME280;45734;53.648;9.566;2022-11-14T21:53:14;101154.75;;;5.48;100.00
59859;BME280;45734;53.648;9.566;2022-11-14T21:58:17;101148.16;;;5.53;100.00
59859;BME280;45734;53.648;9.566;2022-11-14T22:03:17;101120.50;;;5.46;100.00
59859;BME280;45734;53.648;9.566;2022-11-14T22:08:36;101130.13;;;5.58;100.00
59859;BME280;45734;53.648;9.566;2022-11-14T22:13:37;101124.16;;;5.67;100.00
59859;BME280;45734;53.648;9.566;2022-11-14T22:18:37;101122.69;;;5.75;100.00
59859;BME280;45734;53.648;9.566;2022-11-14T22:23:38;101128.81;;;5.75;100.00
59859;BME280;45734;53.648;9.566;2022-11-14T22:28:38;101112.25;;;5.73;100.00
59859;BME280;45734;53.648;9.566;2022-11-14T22:33:41;101107.91;;;5.72;100.00
59859;BME280;45734;53.648;9.566;2022-11-14T22:38:43;101094.69;;;5.72;100.00
59859;BME280;45734;53.648;9.566;2022-11-14T22:43:44;101088.47;;;5.73;100.00
59859;BME280;45734;53.648;9.566;2022-11-14T22:48:46;101077.16;;;5.71;100.00
59859;BME280;45734;53.648;9.566;2022-11-14T22:53:51;101084.72;;;5.76;100.00
59859;BME280;45734;53.648;9.566;2022-11-14T22:58:52;101081.13;;;5.77;100.00
59859;BME280;45734;53.648;9.566;2022-11-14T23:03:57;101083.28;;;5.72;100.00
59859;BME280;45734;53.648;9.566;2022-11-14T23:08:58;101075.72;;;5.67;100.00
59859;BME280;45734;53.648;9.566;2022-11-14T23:13:59;101074.88;;;5.55;100.00
59859;BME280;45734;53.648;9.566;2022-11-14T23:19:01;101069.00;;;5.52;100.00
59859;BME280;45734;53.648;9.566;2022-11-14T23:24:05;101064.53;;;5.52;100.00
59859;BME280;45734;53.648;9.566;2022-11-14T23:29:06;101052.78;;;5.45;100.00
59859;BME280;45734;53.648;9.566;2022-11-14T23:34:06;101067.09;;;5.54;100.00
59859;BME280;45734;53.648;9.566;2022-11-14T23:39:06;101050.63;;;5.50;100.00
59859;BME280;45734;53.648;9.566;2022-11-14T23:44:07;101042.56;;;5.40;100.00
59859;BME280;45734;53.648;9.566;2022-11-14T23:49:07;101040.91;;;5.39;100.00
59859;BME280;45734;53.648;9.566;2022-11-14T23:54:07;101041.16;;;5.48;100.00
59859;BME280;45734;53.648;9.566;2022-11-14T23:59:08;101036.81;;;5.47;100.00
